sensor_id;sensor_type;location;lat;lon;timestamp;temperature;humidity
51175;DHT22;37240;50.104;20.010;2023-01-06T00:02:41;8.50;97.80
51175;DHT22;37240;50.104;20.010;2023-01-06T00:07:42;8.50;97.90
51175;DHT22;37240;50.104;20.010;2023-01-06T00:12:47;8.50;97.50
51175;DHT22;37240;50.104;20.010;2023-01-06T00:17:47;8.40;97.80
51175;DHT22;37240;50.104;20.010;2023-01-06T00:22:48;8.40;97.70
51175;DHT22;37240;50.104;20.010;2023-01-06T00:27:48;8.40;97.20
51175;DHT22;37240;50.104;20.010;2023-01-06T00:32:50;8.30;97.50
51175;DHT22;37240;50.104;20.010;2023-01-06T00:37:50;8.40;97.20
51175;DHT22;37240;50.104;20.010;2023-01-06T00:42:51;8.30;97.00
51175;DHT22;37240;50.104;20.010;2023-01-06T00:47:51;8.30;97.10
51175;DHT22;37240;50.104;20.010;2023-01-06T00:52:52;8.30;97.00
51175;DHT22;37240;50.104;20.010;2023-01-06T00:57:52;8.30;97.20
51175;DHT22;37240;50.104;20.010;2023-01-06T01:02:53;8.20;96.90
51175;DHT22;37240;50.104;20.010;2023-01-06T01:07:53;8.20;96.80
51175;DHT22;37240;50.104;20.010;2023-01-06T01:12:54;8.10;96.50
51175;DHT22;37240;50.104;20.010;2023-01-06T01:17:55;8.00;96.70
51175;DHT22;37240;50.104;20.010;2023-01-06T01:22:55;8.00;96.80
51175;DHT22;37240;50.104;20.010;2023-01-06T01:27:56;8.10;96.70
51175;DHT22;37240;50.104;20.010;2023-01-06T01:32:56;8.10;96.60
51175;DHT22;37240;50.104;20.010;2023-01-06T01:37:57;8.10;96.50
51175;DHT22;37240;50.104;20.010;2023-01-06T01:42:57;8.00;96.80
51175;DHT22;37240;50.104;20.010;2023-01-06T01:48:12;8.00;96.80
51175;DHT22;37240;50.104;20.010;2023-01-06T01:53:27;8.00;97.00
51175;DHT22;37240;50.104;20.010;2023-01-06T01:58:37;8.10;97.20
51175;DHT22;37240;50.104;20.010;2023-01-06T02:03:40;8.10;97.10
51175;DHT22;37240;50.104;20.010;2023-01-06T02:14:10;8.00;97.00
51175;DHT22;37240;50.104;20.010;2023-01-06T03:02:38;7.80;97.60
51175;DHT22;37240;50.104;20.010;2023-01-06T03:07:42;7.80;97.60
51175;DHT22;37240;50.104;20.010;2023-01-06T03:18:09;7.80;98.20
51175;DHT22;37240;50.104;20.010;2023-01-06T03:23:11;7.80;97.80
51175;DHT22;37240;50.104;20.010;2023-01-06T03:28:12;7.80;97.80
51175;DHT22;37240;50.104;20.010;2023-01-06T03:33:47;7.90;97.80
51175;DHT22;37240;50.104;20.010;2023-01-06T03:43:58;7.90;98.00
51175;DHT22;37240;50.104;20.010;2023-01-06T03:49:07;7.80;98.10
51175;DHT22;37240;50.104;20.010;2023-01-06T03:59:40;7.80;98.00
51175;DHT22;37240;50.104;20.010;2023-01-06T04:04:42;7.80;98.00
51175;DHT22;37240;50.104;20.010;2023-01-06T04:09:42;7.80;98.00
51175;DHT22;37240;50.104;20.010;2023-01-06T04:14:43;7.80;98.20
51175;DHT22;37240;50.104;20.010;2023-01-06T04:19:43;7.80;98.10
51175;DHT22;37240;50.104;20.010;2023-01-06T04:24:44;7.80;98.20
51175;DHT22;37240;50.104;20.010;2023-01-06T04:29:44;7.80;98.30
51175;DHT22;37240;50.104;20.010;2023-01-06T04:34:45;7.80;98.30
51175;DHT22;37240;50.104;20.010;2023-01-06T04:39:46;7.80;98.40
51175;DHT22;37240;50.104;20.010;2023-01-06T04:44:46;7.80;98.30
51175;DHT22;37240;50.104;20.010;2023-01-06T04:49:47;7.80;98.40
51175;DHT22;37240;50.104;20.010;2023-01-06T04:54:47;7.80;98.40
51175;DHT22;37240;50.104;20.010;2023-01-06T04:59:48;7.80;98.40
51175;DHT22;37240;50.104;20.010;2023-01-06T05:04:48;7.70;98.50
51175;DHT22;37240;50.104;20.010;2023-01-06T05:09:49;7.70;98.60
51175;DHT22;37240;50.104;20.010;2023-01-06T05:14:49;7.70;98.70
51175;DHT22;37240;50.104;20.010;2023-01-06T05:19:50;7.60;98.80
51175;DHT22;37240;50.104;20.010;2023-01-06T05:24:50;7.60;98.80
51175;DHT22;37240;50.104;20.010;2023-01-06T05:29:51;7.50;98.80
51175;DHT22;37240;50.104;20.010;2023-01-06T05:34:51;7.50;98.80
51175;DHT22;37240;50.104;20.010;2023-01-06T05:39:52;7.50;98.90
51175;DHT22;37240;50.104;20.010;2023-01-06T05:44:52;7.40;98.90
51175;DHT22;37240;50.104;20.010;2023-01-06T05:49:53;7.30;99.00
51175;DHT22;37240;50.104;20.010;2023-01-06T05:54:54;7.30;99.10
51175;DHT22;37240;50.104;20.010;2023-01-06T05:59:54;7.20;99.30
51175;DHT22;37240;50.104;20.010;2023-01-06T06:04:55;7.10;99.40
51175;DHT22;37240;50.104;20.010;2023-01-06T06:09:55;7.10;99.50
51175;DHT22;37240;50.104;20.010;2023-01-06T06:14:56;7.00;99.60
51175;DHT22;37240;50.104;20.010;2023-01-06T06:19:56;7.00;99.70
51175;DHT22;37240;50.104;20.010;2023-01-06T06:24:57;7.00;99.80
51175;DHT22;37240;50.104;20.010;2023-01-06T06:29:57;7.00;99.90
51175;DHT22;37240;50.104;20.010;2023-01-06T06:34:58;7.10;99.90
51175;DHT22;37240;50.104;20.010;2023-01-06T06:39:58;7.10;99.90
51175;DHT22;37240;50.104;20.010;2023-01-06T06:44:59;7.20;99.90
51175;DHT22;37240;50.104;20.010;2023-01-06T06:49:59;7.20;99.90
51175;DHT22;37240;50.104;20.010;2023-01-06T06:55:00;7.20;99.90
51175;DHT22;37240;50.104;20.010;2023-01-06T07:00:01;7.20;99.90
51175;DHT22;37240;50.104;20.010;2023-01-06T07:05:01;7.20;99.90
51175;DHT22;37240;50.104;20.010;2023-01-06T07:10:02;7.30;99.90
51175;DHT22;37240;50.104;20.010;2023-01-06T07:15:03;7.20;99.90
51175;DHT22;37240;50.104;20.010;2023-01-06T07:20:04;7.20;99.90
51175;DHT22;37240;50.104;20.010;2023-01-06T07:25:06;7.20;99.90
51175;DHT22;37240;50.104;20.010;2023-01-06T07:30:07;7.30;99.90
51175;DHT22;37240;50.104;20.010;2023-01-06T07:35:08;7.30;99.90
51175;DHT22;37240;50.104;20.010;2023-01-06T07:40:09;7.40;99.90
51175;DHT22;37240;50.104;20.010;2023-01-06T07:45:11;7.60;99.90
51175;DHT22;37240;50.104;20.010;2023-01-06T07:50:11;7.60;99.90
51175;DHT22;37240;50.104;20.010;2023-01-06T07:55:12;7.70;99.80
51175;DHT22;37240;50.104;20.010;2023-01-06T08:00:13;7.90;99.30
51175;DHT22;37240;50.104;20.010;2023-01-06T08:05:13;8.00;98.60
51175;DHT22;37240;50.104;20.010;2023-01-06T08:10:14;8.10;98.20
51175;DHT22;37240;50.104;20.010;2023-01-06T08:15:15;8.10;98.40
51175;DHT22;37240;50.104;20.010;2023-01-06T08:20:16;8.40;98.10
51175;DHT22;37240;50.104;20.010;2023-01-06T08:25:16;8.80;97.30
51175;DHT22;37240;50.104;20.010;2023-01-06T08:30:17;9.10;96.80
51175;DHT22;37240;50.104;20.010;2023-01-06T08:35:17;9.50;96.00
51175;DHT22;37240;50.104;20.010;2023-01-06T08:40:18;10.10;94.80
51175;DHT22;37240;50.104;20.010;2023-01-06T08:45:19;10.40;93.90
51175;DHT22;37240;50.104;20.010;2023-01-06T08:50:19;10.70;93.00
51175;DHT22;37240;50.104;20.010;2023-01-06T08:55:20;10.90;92.40
51175;DHT22;37240;50.104;20.010;2023-01-06T09:00:20;11.20;92.50
51175;DHT22;37240;50.104;20.010;2023-01-06T09:05:21;11.50;90.30
51175;DHT22;37240;50.104;20.010;2023-01-06T09:10:22;11.70;89.10
51175;DHT22;37240;50.104;20.010;2023-01-06T09:15:23;11.60;88.00
51175;DHT22;37240;50.104;20.010;2023-01-06T09:20:23;11.80;86.90
51175;DHT22;37240;50.104;20.010;2023-01-06T09:25:24;12.00;85.50
51175;DHT22;37240;50.104;20.010;2023-01-06T09:30:24;11.90;85.50
51175;DHT22;37240;50.104;20.010;2023-01-06T09:35:25;11.80;84.40
51175;DHT22;37240;50.104;20.010;2023-01-06T09:40:35;11.50;84.00
51175;DHT22;37240;50.104;20.010;2023-01-06T09:45:44;11.10;85.70
51175;DHT22;37240;50.104;20.010;2023-01-06T09:50:59;10.90;87.60
51175;DHT22;37240;50.104;20.010;2023-01-06T09:56:03;10.60;89.50
51175;DHT22;37240;50.104;20.010;2023-01-06T10:01:08;10.40;90.60
51175;DHT22;37240;50.104;20.010;2023-01-06T10:22:03;10.10;90.20
51175;DHT22;37240;50.104;20.010;2023-01-06T10:27:36;10.10;90.00
51175;DHT22;37240;50.104;20.010;2023-01-06T10:32:37;10.10;89.70
51175;DHT22;37240;50.104;20.010;2023-01-06T10:37:43;10.00;89.50
51175;DHT22;37240;50.104;20.010;2023-01-06T10:47:50;10.10;89.00
51175;DHT22;37240;50.104;20.010;2023-01-06T10:52:52;9.90;88.40
51175;DHT22;37240;50.104;20.010;2023-01-06T10:57:53;10.00;88.30
51175;DHT22;37240;50.104;20.010;2023-01-06T11:03:10;9.90;86.90
51175;DHT22;37240;50.104;20.010;2023-01-06T11:08:13;9.90;86.70
51175;DHT22;37240;50.104;20.010;2023-01-06T11:18:29;9.80;85.20
51175;DHT22;37240;50.104;20.010;2023-01-06T11:23:30;9.70;84.20
51175;DHT22;37240;50.104;20.010;2023-01-06T11:28:31;9.70;84.90
51175;DHT22;37240;50.104;20.010;2023-01-06T11:33:45;9.60;85.30
51175;DHT22;37240;50.104;20.010;2023-01-06T11:38:55;9.60;85.80
51175;DHT22;37240;50.104;20.010;2023-01-06T11:49:23;9.70;86.70
51175;DHT22;37240;50.104;20.010;2023-01-06T11:54:31;9.60;87.60
51175;DHT22;37240;50.104;20.010;2023-01-06T12:04:52;9.60;88.00
51175;DHT22;37240;50.104;20.010;2023-01-06T12:09:53;9.60;88.80
51175;DHT22;37240;50.104;20.010;2023-01-06T12:14:57;9.70;89.20
51175;DHT22;37240;50.104;20.010;2023-01-06T12:20:05;9.70;89.20
51175;DHT22;37240;50.104;20.010;2023-01-06T12:25:20;9.80;88.90
51175;DHT22;37240;50.104;20.010;2023-01-06T12:35:53;9.80;89.80
51175;DHT22;37240;50.104;20.010;2023-01-06T12:41:00;9.90;89.30
51175;DHT22;37240;50.104;20.010;2023-01-06T12:46:25;9.90;89.10
51175;DHT22;37240;50.104;20.010;2023-01-06T12:51:36;9.80;89.80
51175;DHT22;37240;50.104;20.010;2023-01-06T13:43:50;9.70;91.10
51175;DHT22;37240;50.104;20.010;2023-01-06T13:49:00;9.70;91.30
51175;DHT22;37240;50.104;20.010;2023-01-06T13:54:01;9.70;91.50
51175;DHT22;37240;50.104;20.010;2023-01-06T13:59:22;9.60;91.60
51175;DHT22;37240;50.104;20.010;2023-01-06T14:09:46;9.50;92.00
51175;DHT22;37240;50.104;20.010;2023-01-06T14:15:06;9.50;92.10
51175;DHT22;37240;50.104;20.010;2023-01-06T14:20:29;9.40;92.70
51175;DHT22;37240;50.104;20.010;2023-01-06T14:25:36;9.30;92.40
51175;DHT22;37240;50.104;20.010;2023-01-06T14:30:38;9.10;92.30
51175;DHT22;37240;50.104;20.010;2023-01-06T14:35:42;8.90;92.90
51175;DHT22;37240;50.104;20.010;2023-01-06T14:40:54;8.80;93.40
51175;DHT22;37240;50.104;20.010;2023-01-06T14:46:13;8.70;93.60
51175;DHT22;37240;50.104;20.010;2023-01-06T14:51:17;8.80;93.50
51175;DHT22;37240;50.104;20.010;2023-01-06T14:56:21;8.70;93.60
51175;DHT22;37240;50.104;20.010;2023-01-06T15:01:24;8.70;93.80
51175;DHT22;37240;50.104;20.010;2023-01-06T15:06:26;8.80;93.70
51175;DHT22;37240;50.104;20.010;2023-01-06T15:11:29;8.80;93.80
51175;DHT22;37240;50.104;20.010;2023-01-06T15:16:35;8.70;94.00
51175;DHT22;37240;50.104;20.010;2023-01-06T15:21:38;8.70;94.40
51175;DHT22;37240;50.104;20.010;2023-01-06T15:26:39;8.80;94.00
51175;DHT22;37240;50.104;20.010;2023-01-06T15:31:40;8.80;94.30
51175;DHT22;37240;50.104;20.010;2023-01-06T15:36:43;8.90;94.10
51175;DHT22;37240;50.104;20.010;2023-01-06T15:41:45;8.80;93.90
51175;DHT22;37240;50.104;20.010;2023-01-06T15:46:46;8.70;94.40
51175;DHT22;37240;50.104;20.010;2023-01-06T15:51:53;8.70;94.40
51175;DHT22;37240;50.104;20.010;2023-01-06T15:56:55;8.70;94.50
51175;DHT22;37240;50.104;20.010;2023-01-06T16:01:56;8.70;94.80
51175;DHT22;37240;50.104;20.010;2023-01-06T16:07:32;8.70;95.00
51175;DHT22;37240;50.104;20.010;2023-01-06T16:12:34;8.70;95.10
51175;DHT22;37240;50.104;20.010;2023-01-06T16:17:44;8.50;95.40
51175;DHT22;37240;50.104;20.010;2023-01-06T16:22:50;8.50;95.50
51175;DHT22;37240;50.104;20.010;2023-01-06T16:27:56;8.40;95.70
51175;DHT22;37240;50.104;20.010;2023-01-06T16:32:57;8.40;95.60
51175;DHT22;37240;50.104;20.010;2023-01-06T16:37:58;8.40;95.60
51175;DHT22;37240;50.104;20.010;2023-01-06T16:43:00;8.40;95.70
51175;DHT22;37240;50.104;20.010;2023-01-06T16:48:02;8.50;95.50
51175;DHT22;37240;50.104;20.010;2023-01-06T16:58:17;8.30;96.00
51175;DHT22;37240;50.104;20.010;2023-01-06T17:03:20;8.40;96.20
51175;DHT22;37240;50.104;20.010;2023-01-06T17:08:33;8.40;96.00
51175;DHT22;37240;50.104;20.010;2023-01-06T17:13:35;8.40;96.20
51175;DHT22;37240;50.104;20.010;2023-01-06T17:23:52;8.50;95.90
51175;DHT22;37240;50.104;20.010;2023-01-06T17:28:56;8.50;96.00
51175;DHT22;37240;50.104;20.010;2023-01-06T17:34:07;8.50;95.90
51175;DHT22;37240;50.104;20.010;2023-01-06T17:39:20;8.50;95.90
51175;DHT22;37240;50.104;20.010;2023-01-06T17:44:28;8.60;96.00
51175;DHT22;37240;50.104;20.010;2023-01-06T17:49:34;8.60;96.00
51175;DHT22;37240;50.104;20.010;2023-01-06T17:54:35;8.70;96.00
51175;DHT22;37240;50.104;20.010;2023-01-06T17:59:38;8.70;96.20
51175;DHT22;37240;50.104;20.010;2023-01-06T18:04:39;8.70;96.70
51175;DHT22;37240;50.104;20.010;2023-01-06T18:09:39;8.70;97.10
51175;DHT22;37240;50.104;20.010;2023-01-06T18:14:40;8.70;97.30
51175;DHT22;37240;50.104;20.010;2023-01-06T18:19:40;8.70;97.60
51175;DHT22;37240;50.104;20.010;2023-01-06T18:24:42;8.70;97.80
51175;DHT22;37240;50.104;20.010;2023-01-06T18:29:43;8.70;98.10
51175;DHT22;37240;50.104;20.010;2023-01-06T18:34:44;8.70;98.10
51175;DHT22;37240;50.104;20.010;2023-01-06T18:39:47;8.60;98.60
51175;DHT22;37240;50.104;20.010;2023-01-06T18:44:50;8.70;98.80
51175;DHT22;37240;50.104;20.010;2023-01-06T18:50:01;8.60;99.30
51175;DHT22;37240;50.104;20.010;2023-01-06T18:55:26;8.60;99.50
51175;DHT22;37240;50.104;20.010;2023-01-06T19:00:43;8.70;99.70
51175;DHT22;37240;50.104;20.010;2023-01-06T19:05:45;8.60;99.80
51175;DHT22;37240;50.104;20.010;2023-01-06T19:10:48;8.60;99.90
51175;DHT22;37240;50.104;20.010;2023-01-06T19:15:49;8.60;99.90
51175;DHT22;37240;50.104;20.010;2023-01-06T19:20:49;8.60;99.90
51175;DHT22;37240;50.104;20.010;2023-01-06T19:26:03;8.60;99.90
51175;DHT22;37240;50.104;20.010;2023-01-06T19:31:04;8.60;99.90
51175;DHT22;37240;50.104;20.010;2023-01-06T19:41:27;8.70;99.90
51175;DHT22;37240;50.104;20.010;2023-01-06T19:46:28;8.60;99.90
51175;DHT22;37240;50.104;20.010;2023-01-06T19:51:29;8.70;99.90
51175;DHT22;37240;50.104;20.010;2023-01-06T19:56:35;8.60;99.90
51175;DHT22;37240;50.104;20.010;2023-01-06T20:01:36;8.60;99.90
51175;DHT22;37240;50.104;20.010;2023-01-06T20:06:36;8.70;99.90
51175;DHT22;37240;50.104;20.010;2023-01-06T20:11:37;8.60;99.90
51175;DHT22;37240;50.104;20.010;2023-01-06T20:16:38;8.60;99.90
51175;DHT22;37240;50.104;20.010;2023-01-06T20:21:38;8.60;99.90
51175;DHT22;37240;50.104;20.010;2023-01-06T20:26:39;8.60;99.90
51175;DHT22;37240;50.104;20.010;2023-01-06T20:31:39;8.60;99.90
51175;DHT22;37240;50.104;20.010;2023-01-06T20:36:40;8.60;99.90
51175;DHT22;37240;50.104;20.010;2023-01-06T20:41:40;8.60;99.90
51175;DHT22;37240;50.104;20.010;2023-01-06T20:46:41;8.70;99.90
51175;DHT22;37240;50.104;20.010;2023-01-06T20:51:42;8.70;99.90
51175;DHT22;37240;50.104;20.010;2023-01-06T20:56:42;8.70;99.90
51175;DHT22;37240;50.104;20.010;2023-01-06T21:01:43;8.70;99.90
51175;DHT22;37240;50.104;20.010;2023-01-06T21:06:43;8.70;99.90
51175;DHT22;37240;50.104;20.010;2023-01-06T21:11:44;8.70;99.90
51175;DHT22;37240;50.104;20.010;2023-01-06T21:16:44;8.80;99.90
51175;DHT22;37240;50.104;20.010;2023-01-06T21:21:45;8.70;99.90
51175;DHT22;37240;50.104;20.010;2023-01-06T21:26:45;8.70;99.90
51175;DHT22;37240;50.104;20.010;2023-01-06T21:31:46;8.80;99.90
51175;DHT22;37240;50.104;20.010;2023-01-06T21:36:46;8.80;99.90
51175;DHT22;37240;50.104;20.010;2023-01-06T21:41:47;8.80;99.90
51175;DHT22;37240;50.104;20.010;2023-01-06T21:46:48;8.90;99.90
51175;DHT22;37240;50.104;20.010;2023-01-06T21:51:48;8.90;99.90
51175;DHT22;37240;50.104;20.010;2023-01-06T21:56:49;8.90;99.90
51175;DHT22;37240;50.104;20.010;2023-01-06T22:01:49;9.00;99.90
51175;DHT22;37240;50.104;20.010;2023-01-06T22:06:50;9.10;99.90
51175;DHT22;37240;50.104;20.010;2023-01-06T22:11:52;9.10;99.90
51175;DHT22;37240;50.104;20.010;2023-01-06T22:16:52;9.20;99.90
51175;DHT22;37240;50.104;20.010;2023-01-06T22:21:53;9.30;99.90
51175;DHT22;37240;50.104;20.010;2023-01-06T22:26:54;9.40;99.90
51175;DHT22;37240;50.104;20.010;2023-01-06T22:32:01;9.40;99.90
51175;DHT22;37240;50.104;20.010;2023-01-06T22:37:02;9.40;99.90
51175;DHT22;37240;50.104;20.010;2023-01-06T22:42:02;9.50;99.90
51175;DHT22;37240;50.104;20.010;2023-01-06T22:47:03;9.60;99.90
51175;DHT22;37240;50.104;20.010;2023-01-06T22:52:03;9.60;99.90
51175;DHT22;37240;50.104;20.010;2023-01-06T22:57:04;9.70;99.90
51175;DHT22;37240;50.104;20.010;2023-01-06T23:02:05;9.80;99.90
51175;DHT22;37240;50.104;20.010;2023-01-06T23:07:05;9.90;99.90
51175;DHT22;37240;50.104;20.010;2023-01-06T23:12:06;10.00;99.90
51175;DHT22;37240;50.104;20.010;2023-01-06T23:17:06;10.00;99.90
51175;DHT22;37240;50.104;20.010;2023-01-06T23:22:07;10.00;99.90
51175;DHT22;37240;50.104;20.010;2023-01-06T23:27:07;10.10;99.90
51175;DHT22;37240;50.104;20.010;2023-01-06T23:32:08;10.10;99.90
51175;DHT22;37240;50.104;20.010;2023-01-06T23:37:08;10.10;99.90
51175;DHT22;37240;50.104;20.010;2023-01-06T23:42:09;10.20;99.90
51175;DHT22;37240;50.104;20.010;2023-01-06T23:47:09;10.20;99.90
51175;DHT22;37240;50.104;20.010;2023-01-06T23:52:10;10.30;99.90
51175;DHT22;37240;50.104;20.010;2023-01-06T23:57:10;10.30;99.90
